sensor_id;sensor_type;location;lat;lon;timestamp;P1;durP1;ratioP1;P2;durP2;ratioP2
26598;SDS011;14240;51.064;16.612;2023-03-26T00:01:02;8.43;;;3.30;;
26598;SDS011;14240;51.064;16.612;2023-03-26T00:03:29;4.15;;;2.75;;
26598;SDS011;14240;51.064;16.612;2023-03-26T00:06:03;2.83;;;1.98;;
26598;SDS011;14240;51.064;16.612;2023-03-26T00:08:33;4.72;;;2.30;;
26598;SDS011;14240;51.064;16.612;2023-03-26T00:11:00;5.70;;;2.65;;
26598;SDS011;14240;51.064;16.612;2023-03-26T00:13:27;5.97;;;2.22;;
26598;SDS011;14240;51.064;16.612;2023-03-26T00:15:52;3.97;;;2.28;;
26598;SDS011;14240;51.064;16.612;2023-03-26T00:18:18;5.80;;;2.40;;
26598;SDS011;14240;51.064;16.612;2023-03-26T00:20:46;34.80;;;15.40;;
26598;SDS011;14240;51.064;16.612;2023-03-26T00:23:12;22.40;;;10.45;;
26598;SDS011;14240;51.064;16.612;2023-03-26T00:25:38;9.30;;;5.63;;
26598;SDS011;14240;51.064;16.612;2023-03-26T00:28:06;8.65;;;3.80;;
26598;SDS011;14240;51.064;16.612;2023-03-26T00:30:32;8.70;;;4.32;;
26598;SDS011;14240;51.064;16.612;2023-03-26T00:33:05;9.90;;;4.18;;
26598;SDS011;14240;51.064;16.612;2023-03-26T00:35:34;5.32;;;3.25;;
26598;SDS011;14240;51.064;16.612;2023-03-26T00:38:00;6.60;;;2.90;;
26598;SDS011;14240;51.064;16.612;2023-03-26T00:40:26;4.30;;;3.42;;
26598;SDS011;14240;51.064;16.612;2023-03-26T00:42:53;3.75;;;2.95;;
26598;SDS011;14240;51.064;16.612;2023-03-26T00:45:20;6.93;;;3.50;;
26598;SDS011;14240;51.064;16.612;2023-03-26T00:47:46;6.03;;;3.10;;
26598;SDS011;14240;51.064;16.612;2023-03-26T00:50:12;8.15;;;4.20;;
26598;SDS011;14240;51.064;16.612;2023-03-26T00:52:42;5.75;;;3.47;;
26598;SDS011;14240;51.064;16.612;2023-03-26T00:55:09;5.32;;;3.42;;
26598;SDS011;14240;51.064;16.612;2023-03-26T00:57:35;16.88;;;7.68;;
26598;SDS011;14240;51.064;16.612;2023-03-26T01:00:02;65.05;;;20.40;;
26598;SDS011;14240;51.064;16.612;2023-03-26T01:02:40;31.70;;;13.05;;
26598;SDS011;14240;51.064;16.612;2023-03-26T01:08:03;29.27;;;12.52;;
26598;SDS011;14240;51.064;16.612;2023-03-26T01:10:51;27.25;;;11.80;;
26598;SDS011;14240;51.064;16.612;2023-03-26T01:13:26;34.83;;;13.73;;
26598;SDS011;14240;51.064;16.612;2023-03-26T01:15:55;8.48;;;4.00;;
26598;SDS011;14240;51.064;16.612;2023-03-26T01:18:22;16.25;;;4.90;;
26598;SDS011;14240;51.064;16.612;2023-03-26T01:20:59;10.73;;;4.55;;
26598;SDS011;14240;51.064;16.612;2023-03-26T01:23:46;4.63;;;3.78;;
26598;SDS011;14240;51.064;16.612;2023-03-26T01:26:28;5.38;;;3.88;;
26598;SDS011;14240;51.064;16.612;2023-03-26T01:28:57;11.98;;;4.30;;
26598;SDS011;14240;51.064;16.612;2023-03-26T01:31:30;5.57;;;3.38;;
26598;SDS011;14240;51.064;16.612;2023-03-26T01:42:36;23.90;;;6.82;;
26598;SDS011;14240;51.064;16.612;2023-03-26T01:45:12;36.00;;;9.48;;
26598;SDS011;14240;51.064;16.612;2023-03-26T01:47:41;24.45;;;8.00;;
26598;SDS011;14240;51.064;16.612;2023-03-26T01:50:09;16.08;;;6.10;;
26598;SDS011;14240;51.064;16.612;2023-03-26T01:52:35;15.77;;;6.50;;
26598;SDS011;14240;51.064;16.612;2023-03-26T01:55:01;30.77;;;14.25;;
26598;SDS011;14240;51.064;16.612;2023-03-26T02:05:20;12.23;;;5.47;;
26598;SDS011;14240;51.064;16.612;2023-03-26T02:12:51;13.18;;;5.13;;
26598;SDS011;14240;51.064;16.612;2023-03-26T02:15:18;8.15;;;5.00;;
26598;SDS011;14240;51.064;16.612;2023-03-26T02:17:43;14.75;;;6.45;;
26598;SDS011;14240;51.064;16.612;2023-03-26T02:20:11;5.00;;;3.27;;
26598;SDS011;14240;51.064;16.612;2023-03-26T02:22:38;6.68;;;2.60;;
26598;SDS011;14240;51.064;16.612;2023-03-26T02:25:09;11.47;;;3.17;;
26598;SDS011;14240;51.064;16.612;2023-03-26T02:27:38;3.13;;;2.25;;
26598;SDS011;14240;51.064;16.612;2023-03-26T02:30:07;5.55;;;2.72;;
26598;SDS011;14240;51.064;16.612;2023-03-26T02:32:34;9.65;;;6.00;;
26598;SDS011;14240;51.064;16.612;2023-03-26T02:35:01;8.25;;;2.58;;
26598;SDS011;14240;51.064;16.612;2023-03-26T02:37:27;7.40;;;2.80;;
26598;SDS011;14240;51.064;16.612;2023-03-26T02:39:54;7.85;;;3.17;;
26598;SDS011;14240;51.064;16.612;2023-03-26T02:42:20;11.65;;;3.40;;
26598;SDS011;14240;51.064;16.612;2023-03-26T02:44:46;6.43;;;2.80;;
26598;SDS011;14240;51.064;16.612;2023-03-26T02:47:11;5.25;;;2.92;;
26598;SDS011;14240;51.064;16.612;2023-03-26T02:49:37;4.65;;;2.22;;
26598;SDS011;14240;51.064;16.612;2023-03-26T02:52:06;4.68;;;2.30;;
26598;SDS011;14240;51.064;16.612;2023-03-26T02:54:32;6.25;;;2.63;;
26598;SDS011;14240;51.064;16.612;2023-03-26T02:56:58;10.30;;;3.10;;
26598;SDS011;14240;51.064;16.612;2023-03-26T02:59:24;7.35;;;2.78;;
26598;SDS011;14240;51.064;16.612;2023-03-26T03:01:50;3.08;;;2.45;;
26598;SDS011;14240;51.064;16.612;2023-03-26T03:04:15;5.43;;;3.10;;
26598;SDS011;14240;51.064;16.612;2023-03-26T03:06:42;6.50;;;3.28;;
26598;SDS011;14240;51.064;16.612;2023-03-26T03:09:08;10.45;;;3.90;;
26598;SDS011;14240;51.064;16.612;2023-03-26T03:11:35;15.30;;;4.55;;
26598;SDS011;14240;51.064;16.612;2023-03-26T03:14:04;10.27;;;4.20;;
26598;SDS011;14240;51.064;16.612;2023-03-26T03:16:31;11.70;;;3.80;;
26598;SDS011;14240;51.064;16.612;2023-03-26T03:18:57;3.78;;;2.38;;
26598;SDS011;14240;51.064;16.612;2023-03-26T03:21:23;4.47;;;2.83;;
26598;SDS011;14240;51.064;16.612;2023-03-26T03:23:53;5.20;;;2.15;;
26598;SDS011;14240;51.064;16.612;2023-03-26T03:26:20;3.65;;;1.92;;
26598;SDS011;14240;51.064;16.612;2023-03-26T03:28:51;3.28;;;1.35;;
26598;SDS011;14240;51.064;16.612;2023-03-26T03:31:18;2.80;;;1.65;;
26598;SDS011;14240;51.064;16.612;2023-03-26T03:33:45;2.55;;;1.50;;
26598;SDS011;14240;51.064;16.612;2023-03-26T03:36:11;2.38;;;1.27;;
26598;SDS011;14240;51.064;16.612;2023-03-26T03:38:39;2.88;;;1.42;;
26598;SDS011;14240;51.064;16.612;2023-03-26T03:41:06;5.60;;;1.60;;
26598;SDS011;14240;51.064;16.612;2023-03-26T03:43:33;7.78;;;1.92;;
26598;SDS011;14240;51.064;16.612;2023-03-26T03:45:59;3.55;;;1.30;;
26598;SDS011;14240;51.064;16.612;2023-03-26T03:48:25;2.35;;;2.05;;
26598;SDS011;14240;51.064;16.612;2023-03-26T03:50:52;3.67;;;2.28;;
26598;SDS011;14240;51.064;16.612;2023-03-26T03:53:18;5.00;;;1.80;;
26598;SDS011;14240;51.064;16.612;2023-03-26T03:55:45;10.85;;;2.15;;
26598;SDS011;14240;51.064;16.612;2023-03-26T03:58:23;2.22;;;1.70;;
26598;SDS011;14240;51.064;16.612;2023-03-26T04:00:52;4.05;;;1.58;;
26598;SDS011;14240;51.064;16.612;2023-03-26T04:03:25;3.28;;;1.90;;
26598;SDS011;14240;51.064;16.612;2023-03-26T04:05:54;4.88;;;1.58;;
26598;SDS011;14240;51.064;16.612;2023-03-26T04:08:21;4.47;;;1.63;;
26598;SDS011;14240;51.064;16.612;2023-03-26T04:10:47;3.42;;;2.25;;
26598;SDS011;14240;51.064;16.612;2023-03-26T04:13:13;4.22;;;1.60;;
26598;SDS011;14240;51.064;16.612;2023-03-26T04:15:40;5.43;;;1.95;;
26598;SDS011;14240;51.064;16.612;2023-03-26T04:18:07;3.65;;;1.58;;
26598;SDS011;14240;51.064;16.612;2023-03-26T04:20:36;2.97;;;1.65;;
26598;SDS011;14240;51.064;16.612;2023-03-26T04:23:06;3.17;;;1.75;;
26598;SDS011;14240;51.064;16.612;2023-03-26T04:25:32;4.35;;;1.65;;
26598;SDS011;14240;51.064;16.612;2023-03-26T04:28:02;2.15;;;1.58;;
26598;SDS011;14240;51.064;16.612;2023-03-26T04:30:31;3.22;;;1.95;;
26598;SDS011;14240;51.064;16.612;2023-03-26T04:32:58;1.40;;;1.30;;
26598;SDS011;14240;51.064;16.612;2023-03-26T04:35:28;3.53;;;1.80;;
26598;SDS011;14240;51.064;16.612;2023-03-26T04:38:00;3.33;;;1.30;;
26598;SDS011;14240;51.064;16.612;2023-03-26T04:40:30;3.42;;;1.42;;
26598;SDS011;14240;51.064;16.612;2023-03-26T04:42:58;2.60;;;1.20;;
26598;SDS011;14240;51.064;16.612;2023-03-26T04:47:54;3.20;;;1.17;;
26598;SDS011;14240;51.064;16.612;2023-03-26T04:50:22;3.10;;;1.20;;
26598;SDS011;14240;51.064;16.612;2023-03-26T04:52:48;2.95;;;1.25;;
26598;SDS011;14240;51.064;16.612;2023-03-26T04:55:20;1.40;;;1.15;;
26598;SDS011;14240;51.064;16.612;2023-03-26T04:57:58;3.17;;;1.48;;
26598;SDS011;14240;51.064;16.612;2023-03-26T05:00:29;4.13;;;1.58;;
26598;SDS011;14240;51.064;16.612;2023-03-26T05:02:55;2.28;;;1.38;;
26598;SDS011;14240;51.064;16.612;2023-03-26T05:05:24;3.05;;;1.70;;
26598;SDS011;14240;51.064;16.612;2023-03-26T05:07:51;4.53;;;1.85;;
26598;SDS011;14240;51.064;16.612;2023-03-26T05:10:17;5.95;;;2.38;;
26598;SDS011;14240;51.064;16.612;2023-03-26T05:12:44;8.20;;;2.55;;
26598;SDS011;14240;51.064;16.612;2023-03-26T05:15:10;2.55;;;1.73;;
26598;SDS011;14240;51.064;16.612;2023-03-26T05:17:37;6.73;;;2.10;;
26598;SDS011;14240;51.064;16.612;2023-03-26T05:20:06;3.25;;;1.83;;
26598;SDS011;14240;51.064;16.612;2023-03-26T05:22:53;3.33;;;2.45;;
26598;SDS011;14240;51.064;16.612;2023-03-26T05:25:19;2.90;;;2.58;;
26598;SDS011;14240;51.064;16.612;2023-03-26T05:27:45;3.83;;;2.42;;
26598;SDS011;14240;51.064;16.612;2023-03-26T05:30:12;4.40;;;2.50;;
26598;SDS011;14240;51.064;16.612;2023-03-26T05:32:40;6.93;;;2.78;;
26598;SDS011;14240;51.064;16.612;2023-03-26T05:35:06;4.63;;;2.53;;
26598;SDS011;14240;51.064;16.612;2023-03-26T05:37:32;2.97;;;2.35;;
26598;SDS011;14240;51.064;16.612;2023-03-26T05:39:57;6.18;;;2.70;;
26598;SDS011;14240;51.064;16.612;2023-03-26T05:42:24;6.88;;;2.58;;
26598;SDS011;14240;51.064;16.612;2023-03-26T05:44:50;5.18;;;2.53;;
26598;SDS011;14240;51.064;16.612;2023-03-26T05:47:15;8.60;;;3.25;;
26598;SDS011;14240;51.064;16.612;2023-03-26T05:49:41;4.07;;;2.63;;
26598;SDS011;14240;51.064;16.612;2023-03-26T05:52:07;3.42;;;2.15;;
26598;SDS011;14240;51.064;16.612;2023-03-26T05:54:33;2.63;;;2.03;;
26598;SDS011;14240;51.064;16.612;2023-03-26T05:56:58;4.28;;;2.08;;
26598;SDS011;14240;51.064;16.612;2023-03-26T05:59:25;4.07;;;2.13;;
26598;SDS011;14240;51.064;16.612;2023-03-26T06:01:51;4.45;;;1.90;;
26598;SDS011;14240;51.064;16.612;2023-03-26T06:04:18;5.60;;;2.00;;
26598;SDS011;14240;51.064;16.612;2023-03-26T06:06:44;2.85;;;1.80;;
26598;SDS011;14240;51.064;16.612;2023-03-26T06:09:10;3.03;;;2.15;;
26598;SDS011;14240;51.064;16.612;2023-03-26T06:11:37;3.00;;;1.88;;
26598;SDS011;14240;51.064;16.612;2023-03-26T06:14:04;4.28;;;1.58;;
26598;SDS011;14240;51.064;16.612;2023-03-26T06:16:30;7.13;;;1.77;;
26598;SDS011;14240;51.064;16.612;2023-03-26T06:18:56;3.90;;;2.30;;
26598;SDS011;14240;51.064;16.612;2023-03-26T06:21:22;3.72;;;1.90;;
26598;SDS011;14240;51.064;16.612;2023-03-26T06:23:48;7.22;;;2.38;;
26598;SDS011;14240;51.064;16.612;2023-03-26T06:26:15;5.47;;;2.25;;
26598;SDS011;14240;51.064;16.612;2023-03-26T06:28:41;4.78;;;3.05;;
26598;SDS011;14240;51.064;16.612;2023-03-26T06:31:07;4.00;;;2.17;;
26598;SDS011;14240;51.064;16.612;2023-03-26T06:33:33;3.72;;;1.77;;
26598;SDS011;14240;51.064;16.612;2023-03-26T06:35:59;3.03;;;1.40;;
26598;SDS011;14240;51.064;16.612;2023-03-26T06:38:25;5.50;;;1.80;;
26598;SDS011;14240;51.064;16.612;2023-03-26T06:40:50;2.63;;;1.58;;
26598;SDS011;14240;51.064;16.612;2023-03-26T06:43:16;2.72;;;1.58;;
26598;SDS011;14240;51.064;16.612;2023-03-26T06:45:42;2.15;;;1.30;;
26598;SDS011;14240;51.064;16.612;2023-03-26T06:48:07;3.10;;;1.60;;
26598;SDS011;14240;51.064;16.612;2023-03-26T06:50:33;2.00;;;1.52;;
26598;SDS011;14240;51.064;16.612;2023-03-26T06:52:59;4.18;;;1.70;;
26598;SDS011;14240;51.064;16.612;2023-03-26T06:55:25;7.05;;;1.80;;
26598;SDS011;14240;51.064;16.612;2023-03-26T06:57:52;3.13;;;1.37;;
26598;SDS011;14240;51.064;16.612;2023-03-26T07:00:19;6.90;;;2.20;;
26598;SDS011;14240;51.064;16.612;2023-03-26T07:02:45;4.45;;;2.00;;
26598;SDS011;14240;51.064;16.612;2023-03-26T07:05:11;3.38;;;1.60;;
26598;SDS011;14240;51.064;16.612;2023-03-26T07:07:38;5.68;;;1.52;;
26598;SDS011;14240;51.064;16.612;2023-03-26T07:10:04;2.83;;;1.60;;
26598;SDS011;14240;51.064;16.612;2023-03-26T07:12:31;3.13;;;1.60;;
26598;SDS011;14240;51.064;16.612;2023-03-26T07:14:57;2.90;;;1.60;;
26598;SDS011;14240;51.064;16.612;2023-03-26T07:17:25;2.83;;;1.45;;
26598;SDS011;14240;51.064;16.612;2023-03-26T07:19:50;1.83;;;1.35;;
26598;SDS011;14240;51.064;16.612;2023-03-26T07:22:21;5.57;;;2.25;;
26598;SDS011;14240;51.064;16.612;2023-03-26T07:24:48;5.88;;;2.08;;
26598;SDS011;14240;51.064;16.612;2023-03-26T07:30:07;2.58;;;1.73;;
26598;SDS011;14240;51.064;16.612;2023-03-26T07:35:10;4.07;;;1.63;;
26598;SDS011;14240;51.064;16.612;2023-03-26T07:43:10;3.55;;;1.60;;
26598;SDS011;14240;51.064;16.612;2023-03-26T07:45:42;4.60;;;2.15;;
26598;SDS011;14240;51.064;16.612;2023-03-26T07:50:42;4.50;;;2.00;;
26598;SDS011;14240;51.064;16.612;2023-03-26T07:53:08;4.68;;;1.83;;
26598;SDS011;14240;51.064;16.612;2023-03-26T07:55:35;3.97;;;2.00;;
26598;SDS011;14240;51.064;16.612;2023-03-26T08:10:01;1.52;;;1.40;;
26598;SDS011;14240;51.064;16.612;2023-03-26T08:15:24;3.85;;;1.65;;
26598;SDS011;14240;51.064;16.612;2023-03-26T08:18:10;3.83;;;2.53;;
26598;SDS011;14240;51.064;16.612;2023-03-26T08:24:30;11.77;;;6.15;;
26598;SDS011;14240;51.064;16.612;2023-03-26T08:32:07;9.07;;;4.57;;
26598;SDS011;14240;51.064;16.612;2023-03-26T08:34:37;7.90;;;4.57;;
26598;SDS011;14240;51.064;16.612;2023-03-26T08:37:03;18.30;;;10.38;;
26598;SDS011;14240;51.064;16.612;2023-03-26T08:39:29;4.35;;;2.50;;
26598;SDS011;14240;51.064;16.612;2023-03-26T08:55:51;3.38;;;1.65;;
26598;SDS011;14240;51.064;16.612;2023-03-26T09:26:17;3.70;;;1.67;;
26598;SDS011;14240;51.064;16.612;2023-03-26T09:35:08;2.75;;;1.63;;
26598;SDS011;14240;51.064;16.612;2023-03-26T09:37:45;3.03;;;1.58;;
26598;SDS011;14240;51.064;16.612;2023-03-26T09:40:54;2.97;;;1.80;;
26598;SDS011;14240;51.064;16.612;2023-03-26T09:52:07;8.82;;;5.20;;
26598;SDS011;14240;51.064;16.612;2023-03-26T10:11:09;1.98;;;1.38;;
26598;SDS011;14240;51.064;16.612;2023-03-26T10:19:20;3.30;;;2.20;;
26598;SDS011;14240;51.064;16.612;2023-03-26T10:25:09;6.05;;;3.20;;
26598;SDS011;14240;51.064;16.612;2023-03-26T10:30:46;5.35;;;2.63;;
26598;SDS011;14240;51.064;16.612;2023-03-26T10:36:23;4.93;;;3.30;;
26598;SDS011;14240;51.064;16.612;2023-03-26T10:44:29;8.82;;;3.80;;
26598;SDS011;14240;51.064;16.612;2023-03-26T10:48:03;4.85;;;3.00;;
26598;SDS011;14240;51.064;16.612;2023-03-26T10:53:03;2.33;;;1.73;;
26598;SDS011;14240;51.064;16.612;2023-03-26T10:55:53;5.35;;;2.85;;
26598;SDS011;14240;51.064;16.612;2023-03-26T10:58:25;2.30;;;1.90;;
26598;SDS011;14240;51.064;16.612;2023-03-26T11:01:03;15.50;;;6.85;;
26598;SDS011;14240;51.064;16.612;2023-03-26T11:03:41;6.65;;;3.72;;
26598;SDS011;14240;51.064;16.612;2023-03-26T11:17:14;2.35;;;2.05;;
26598;SDS011;14240;51.064;16.612;2023-03-26T11:19:40;2.97;;;2.20;;
26598;SDS011;14240;51.064;16.612;2023-03-26T11:27:26;9.20;;;4.03;;
26598;SDS011;14240;51.064;16.612;2023-03-26T11:32:47;28.48;;;17.08;;
26598;SDS011;14240;51.064;16.612;2023-03-26T11:35:34;17.02;;;7.82;;
26598;SDS011;14240;51.064;16.612;2023-03-26T11:38:12;6.45;;;4.60;;
26598;SDS011;14240;51.064;16.612;2023-03-26T11:40:44;5.95;;;4.15;;
26598;SDS011;14240;51.064;16.612;2023-03-26T11:43:14;11.93;;;4.53;;
26598;SDS011;14240;51.064;16.612;2023-03-26T11:45:53;7.60;;;2.63;;
26598;SDS011;14240;51.064;16.612;2023-03-26T11:48:24;3.60;;;2.08;;
26598;SDS011;14240;51.064;16.612;2023-03-26T11:50:57;2.63;;;2.13;;
26598;SDS011;14240;51.064;16.612;2023-03-26T11:53:30;4.68;;;2.58;;
26598;SDS011;14240;51.064;16.612;2023-03-26T11:56:02;2.78;;;2.15;;
26598;SDS011;14240;51.064;16.612;2023-03-26T12:01:25;6.80;;;1.90;;
26598;SDS011;14240;51.064;16.612;2023-03-26T12:03:55;7.70;;;2.75;;
26598;SDS011;14240;51.064;16.612;2023-03-26T12:06:27;3.10;;;2.05;;
26598;SDS011;14240;51.064;16.612;2023-03-26T12:08:53;6.85;;;2.45;;
26598;SDS011;14240;51.064;16.612;2023-03-26T12:11:24;5.03;;;2.33;;
26598;SDS011;14240;51.064;16.612;2023-03-26T12:13:54;6.72;;;3.85;;
26598;SDS011;14240;51.064;16.612;2023-03-26T12:16:23;12.88;;;7.80;;
26598;SDS011;14240;51.064;16.612;2023-03-26T12:19:00;5.07;;;2.15;;
26598;SDS011;14240;51.064;16.612;2023-03-26T12:21:32;5.15;;;2.15;;
26598;SDS011;14240;51.064;16.612;2023-03-26T12:26:56;18.45;;;10.70;;
26598;SDS011;14240;51.064;16.612;2023-03-26T12:29:57;12.48;;;7.40;;
26598;SDS011;14240;51.064;16.612;2023-03-26T12:32:31;3.35;;;2.00;;
26598;SDS011;14240;51.064;16.612;2023-03-26T12:35:02;5.60;;;2.83;;
26598;SDS011;14240;51.064;16.612;2023-03-26T12:37:39;20.50;;;12.13;;
26598;SDS011;14240;51.064;16.612;2023-03-26T12:42:53;16.75;;;9.45;;
26598;SDS011;14240;51.064;16.612;2023-03-26T12:45:30;17.05;;;9.20;;
26598;SDS011;14240;51.064;16.612;2023-03-26T12:48:03;8.85;;;5.28;;
26598;SDS011;14240;51.064;16.612;2023-03-26T12:58:38;6.85;;;3.40;;
26598;SDS011;14240;51.064;16.612;2023-03-26T13:06:49;8.15;;;2.95;;
26598;SDS011;14240;51.064;16.612;2023-03-26T13:09:29;7.22;;;4.30;;
26598;SDS011;14240;51.064;16.612;2023-03-26T13:12:23;5.40;;;3.00;;
26598;SDS011;14240;51.064;16.612;2023-03-26T13:15:04;4.25;;;2.70;;
26598;SDS011;14240;51.064;16.612;2023-03-26T13:23:36;73.18;;;39.05;;
26598;SDS011;14240;51.064;16.612;2023-03-26T13:26:09;115.70;;;48.78;;
26598;SDS011;14240;51.064;16.612;2023-03-26T13:31:32;11.52;;;6.35;;
26598;SDS011;14240;51.064;16.612;2023-03-26T13:36:41;6.63;;;3.10;;
26598;SDS011;14240;51.064;16.612;2023-03-26T13:44:34;11.73;;;6.72;;
26598;SDS011;14240;51.064;16.612;2023-03-26T13:47:19;18.48;;;10.77;;
26598;SDS011;14240;51.064;16.612;2023-03-26T13:52:27;10.27;;;4.90;;
26598;SDS011;14240;51.064;16.612;2023-03-26T14:03:26;8.65;;;4.70;;
26598;SDS011;14240;51.064;16.612;2023-03-26T14:06:25;7.28;;;3.65;;
26598;SDS011;14240;51.064;16.612;2023-03-26T14:09:16;7.95;;;5.05;;
26598;SDS011;14240;51.064;16.612;2023-03-26T14:15:03;4.00;;;2.05;;
26598;SDS011;14240;51.064;16.612;2023-03-26T14:18:26;5.95;;;3.63;;
26598;SDS011;14240;51.064;16.612;2023-03-26T14:36:28;4.53;;;3.33;;
26598;SDS011;14240;51.064;16.612;2023-03-26T14:41:45;6.07;;;3.65;;
26598;SDS011;14240;51.064;16.612;2023-03-26T14:47:05;10.10;;;4.78;;
26598;SDS011;14240;51.064;16.612;2023-03-26T14:55:22;4.00;;;2.78;;
26598;SDS011;14240;51.064;16.612;2023-03-26T15:29:44;5.07;;;3.08;;
26598;SDS011;14240;51.064;16.612;2023-03-26T15:43:17;6.03;;;5.30;;
26598;SDS011;14240;51.064;16.612;2023-03-26T15:49:11;2.40;;;2.10;;
26598;SDS011;14240;51.064;16.612;2023-03-26T16:08:37;10.98;;;5.72;;
26598;SDS011;14240;51.064;16.612;2023-03-26T16:11:11;10.07;;;6.25;;
26598;SDS011;14240;51.064;16.612;2023-03-26T16:13:42;7.45;;;4.85;;
26598;SDS011;14240;51.064;16.612;2023-03-26T16:18:52;13.32;;;6.07;;
26598;SDS011;14240;51.064;16.612;2023-03-26T16:29:13;60.03;;;35.95;;
26598;SDS011;14240;51.064;16.612;2023-03-26T16:34:24;29.83;;;16.98;;
26598;SDS011;14240;51.064;16.612;2023-03-26T16:36:54;29.80;;;13.80;;
26598;SDS011;14240;51.064;16.612;2023-03-26T16:39:24;52.92;;;21.48;;
26598;SDS011;14240;51.064;16.612;2023-03-26T16:42:34;10.93;;;5.38;;
26598;SDS011;14240;51.064;16.612;2023-03-26T16:45:26;11.75;;;6.38;;
26598;SDS011;14240;51.064;16.612;2023-03-26T16:53:50;15.68;;;9.35;;
26598;SDS011;14240;51.064;16.612;2023-03-26T16:58:32;96.60;;;38.33;;
26598;SDS011;14240;51.064;16.612;2023-03-26T17:09:37;141.48;;;42.35;;
26598;SDS011;14240;51.064;16.612;2023-03-26T17:18:01;66.65;;;24.98;;
26598;SDS011;14240;51.064;16.612;2023-03-26T17:23:55;158.85;;;47.95;;
26598;SDS011;14240;51.064;16.612;2023-03-26T17:37:02;37.42;;;24.00;;
26598;SDS011;14240;51.064;16.612;2023-03-26T17:55:29;149.10;;;53.08;;
26598;SDS011;14240;51.064;16.612;2023-03-26T17:58:00;179.90;;;57.88;;
26598;SDS011;14240;51.064;16.612;2023-03-26T18:00:30;139.02;;;48.38;;
26598;SDS011;14240;51.064;16.612;2023-03-26T18:03:10;86.10;;;31.25;;
26598;SDS011;14240;51.064;16.612;2023-03-26T18:05:52;65.50;;;23.80;;
26598;SDS011;14240;51.064;16.612;2023-03-26T18:16:50;66.07;;;27.73;;
26598;SDS011;14240;51.064;16.612;2023-03-26T18:19:18;32.75;;;16.73;;
26598;SDS011;14240;51.064;16.612;2023-03-26T18:22:02;35.47;;;16.95;;
26598;SDS011;14240;51.064;16.612;2023-03-26T18:27:02;34.47;;;16.38;;
26598;SDS011;14240;51.064;16.612;2023-03-26T18:29:31;53.97;;;22.38;;
26598;SDS011;14240;51.064;16.612;2023-03-26T18:32:15;56.35;;;22.38;;
26598;SDS011;14240;51.064;16.612;2023-03-26T18:34:56;48.95;;;22.15;;
26598;SDS011;14240;51.064;16.612;2023-03-26T18:45:32;59.65;;;24.67;;
26598;SDS011;14240;51.064;16.612;2023-03-26T18:51:04;48.22;;;20.27;;
26598;SDS011;14240;51.064;16.612;2023-03-26T18:53:43;62.63;;;23.35;;
26598;SDS011;14240;51.064;16.612;2023-03-26T18:58:58;31.20;;;12.68;;
26598;SDS011;14240;51.064;16.612;2023-03-26T19:01:25;37.35;;;16.25;;
26598;SDS011;14240;51.064;16.612;2023-03-26T19:03:59;49.85;;;19.92;;
26598;SDS011;14240;51.064;16.612;2023-03-26T19:06:28;28.15;;;15.60;;
26598;SDS011;14240;51.064;16.612;2023-03-26T19:08:59;36.83;;;17.10;;
26598;SDS011;14240;51.064;16.612;2023-03-26T19:11:30;38.08;;;15.88;;
26598;SDS011;14240;51.064;16.612;2023-03-26T19:14:02;53.00;;;23.20;;
26598;SDS011;14240;51.064;16.612;2023-03-26T19:16:51;55.10;;;24.40;;
26598;SDS011;14240;51.064;16.612;2023-03-26T19:19:28;44.90;;;20.95;;
26598;SDS011;14240;51.064;16.612;2023-03-26T19:22:00;29.13;;;13.55;;
26598;SDS011;14240;51.064;16.612;2023-03-26T19:24:28;24.52;;;10.18;;
26598;SDS011;14240;51.064;16.612;2023-03-26T19:26:55;18.25;;;8.63;;
26598;SDS011;14240;51.064;16.612;2023-03-26T19:29:28;21.17;;;8.75;;
26598;SDS011;14240;51.064;16.612;2023-03-26T19:32:04;15.18;;;8.25;;
26598;SDS011;14240;51.064;16.612;2023-03-26T19:34:44;19.20;;;9.32;;
26598;SDS011;14240;51.064;16.612;2023-03-26T19:39:51;17.20;;;8.57;;
26598;SDS011;14240;51.064;16.612;2023-03-26T19:42:36;20.15;;;9.88;;
26598;SDS011;14240;51.064;16.612;2023-03-26T19:45:03;22.25;;;11.20;;
26598;SDS011;14240;51.064;16.612;2023-03-26T19:47:30;19.67;;;9.98;;
26598;SDS011;14240;51.064;16.612;2023-03-26T19:50:24;13.82;;;7.20;;
26598;SDS011;14240;51.064;16.612;2023-03-26T19:55:41;10.63;;;5.43;;
26598;SDS011;14240;51.064;16.612;2023-03-26T19:58:15;10.57;;;6.35;;
26598;SDS011;14240;51.064;16.612;2023-03-26T20:00:41;12.77;;;6.43;;
26598;SDS011;14240;51.064;16.612;2023-03-26T20:03:07;10.57;;;5.53;;
26598;SDS011;14240;51.064;16.612;2023-03-26T20:05:33;9.10;;;4.97;;
26598;SDS011;14240;51.064;16.612;2023-03-26T20:08:01;12.35;;;5.40;;
26598;SDS011;14240;51.064;16.612;2023-03-26T20:10:37;15.32;;;6.30;;
26598;SDS011;14240;51.064;16.612;2023-03-26T20:13:02;12.68;;;5.43;;
26598;SDS011;14240;51.064;16.612;2023-03-26T20:15:33;10.25;;;5.50;;
26598;SDS011;14240;51.064;16.612;2023-03-26T20:18:01;10.32;;;4.90;;
26598;SDS011;14240;51.064;16.612;2023-03-26T20:20:27;7.05;;;3.88;;
26598;SDS011;14240;51.064;16.612;2023-03-26T20:22:53;8.20;;;3.88;;
26598;SDS011;14240;51.064;16.612;2023-03-26T20:25:19;6.15;;;3.42;;
26598;SDS011;14240;51.064;16.612;2023-03-26T20:27:53;8.15;;;4.03;;
26598;SDS011;14240;51.064;16.612;2023-03-26T20:30:20;6.85;;;3.58;;
26598;SDS011;14240;51.064;16.612;2023-03-26T20:32:48;5.40;;;3.08;;
26598;SDS011;14240;51.064;16.612;2023-03-26T20:35:15;7.57;;;4.07;;
26598;SDS011;14240;51.064;16.612;2023-03-26T20:37:45;8.73;;;4.25;;
26598;SDS011;14240;51.064;16.612;2023-03-26T20:40:12;10.13;;;7.17;;
26598;SDS011;14240;51.064;16.612;2023-03-26T20:42:38;32.47;;;26.15;;
26598;SDS011;14240;51.064;16.612;2023-03-26T20:45:23;20.02;;;14.40;;
26598;SDS011;14240;51.064;16.612;2023-03-26T20:47:50;6.63;;;4.28;;
26598;SDS011;14240;51.064;16.612;2023-03-26T20:50:16;7.93;;;4.30;;
26598;SDS011;14240;51.064;16.612;2023-03-26T20:52:47;5.38;;;3.38;;
26598;SDS011;14240;51.064;16.612;2023-03-26T20:55:15;9.27;;;3.80;;
26598;SDS011;14240;51.064;16.612;2023-03-26T20:57:42;6.85;;;3.45;;
26598;SDS011;14240;51.064;16.612;2023-03-26T21:00:10;4.55;;;3.08;;
26598;SDS011;14240;51.064;16.612;2023-03-26T21:02:51;7.10;;;4.60;;
26598;SDS011;14240;51.064;16.612;2023-03-26T21:05:22;8.15;;;4.05;;
26598;SDS011;14240;51.064;16.612;2023-03-26T21:07:53;10.52;;;4.03;;
26598;SDS011;14240;51.064;16.612;2023-03-26T21:10:20;9.52;;;4.32;;
26598;SDS011;14240;51.064;16.612;2023-03-26T21:15:22;18.42;;;15.25;;
26598;SDS011;14240;51.064;16.612;2023-03-26T21:17:49;14.23;;;8.82;;
26598;SDS011;14240;51.064;16.612;2023-03-26T21:20:17;8.00;;;4.55;;
26598;SDS011;14240;51.064;16.612;2023-03-26T21:25:19;9.35;;;3.80;;
26598;SDS011;14240;51.064;16.612;2023-03-26T21:28:02;5.95;;;3.50;;
26598;SDS011;14240;51.064;16.612;2023-03-26T21:30:38;7.72;;;4.35;;
26598;SDS011;14240;51.064;16.612;2023-03-26T21:33:04;13.25;;;4.47;;
26598;SDS011;14240;51.064;16.612;2023-03-26T21:35:30;10.95;;;4.57;;
26598;SDS011;14240;51.064;16.612;2023-03-26T21:37:58;8.70;;;4.30;;
26598;SDS011;14240;51.064;16.612;2023-03-26T21:40:24;12.95;;;5.80;;
26598;SDS011;14240;51.064;16.612;2023-03-26T21:42:50;9.18;;;5.05;;
26598;SDS011;14240;51.064;16.612;2023-03-26T21:45:18;11.27;;;5.15;;
26598;SDS011;14240;51.064;16.612;2023-03-26T21:47:45;15.13;;;5.82;;
26598;SDS011;14240;51.064;16.612;2023-03-26T21:50:13;12.90;;;5.45;;
26598;SDS011;14240;51.064;16.612;2023-03-26T21:52:41;11.15;;;5.60;;